Time;durP1;ratioP1;P1;durP2;ratioP2;P2;SDS_P1;SDS_P2;PMS_P1;PMS_P2;Temp;Humidity;BMP_temperature;BMP_pressure;BME280_temperature;BME280_humidity;BME280_pressure;Samples;Min_cycle;Max_cycle;Signal;HPM_P1;HPM_P2
2022/07/11 00:01:44;;;;;;;3.13;1.55;;;19.30;73.30;;;;;;5012740;28;20029;-29
2022/07/11 00:04:09;;;;;;;3.63;1.35;;;19.30;73.30;;;;;;5012432;28;20390;-35
2022/07/11 00:06:35;;;;;;;3.83;1.33;;;19.40;73.30;;;;;;5012548;28;20054;-32
2022/07/11 00:09:01;;;;;;;1.80;1.20;;;19.40;73.30;;;;;;5012515;28;20014;-28
2022/07/11 00:11:26;;;;;;;3.33;1.27;;;19.40;73.40;;;;;;5012474;28;20061;-31
2022/07/11 00:13:52;;;;;;;2.30;1.30;;;19.30;73.40;;;;;;5012786;28;20026;-35
2022/07/11 00:16:18;;;;;;;5.03;1.42;;;19.30;73.50;;;;;;5012397;28;20033;-34
2022/07/11 00:18:44;;;;;;;2.90;1.70;;;19.30;74.10;;;;;;5012148;28;20105;-30
2022/07/11 00:21:11;;;;;;;2.58;1.40;;;19.40;73.60;;;;;;5012537;28;20171;-28
2022/07/11 00:23:37;;;;;;;3.83;1.38;;;19.40;73.50;;;;;;5012599;28;20101;-27
2022/07/11 00:26:03;;;;;;;4.75;1.38;;;19.40;73.50;;;;;;5012543;28;20060;-29
2022/07/11 00:28:29;;;;;;;2.25;1.33;;;19.40;73.50;;;;;;5012690;28;20033;-33
2022/07/11 00:30:54;;;;;;;3.95;1.60;;;19.40;73.50;;;;;;5012575;28;20114;-34
2022/07/11 00:33:20;;;;;;;7.38;1.40;;;19.40;73.60;;;;;;5012480;28;20053;-27
2022/07/11 00:35:46;;;;;;;4.70;1.42;;;19.40;73.60;;;;;;5012235;28;20025;-28
2022/07/11 00:38:12;;;;;;;2.30;1.30;;;19.40;73.60;;;;;;5012172;28;20021;-28
2022/07/11 00:40:38;;;;;;;2.63;1.30;;;19.40;73.70;;;;;;5012407;28;20022;-29
2022/07/11 00:43:04;;;;;;;3.75;1.42;;;19.40;73.70;;;;;;5012055;28;20371;-29
2022/07/11 00:45:29;;;;;;;2.67;1.50;;;19.40;73.70;;;;;;5012416;28;20018;-30
2022/07/11 00:47:58;;;;;;;3.60;1.50;;;19.30;73.80;;;;;;5012177;28;20097;-34
2022/07/11 00:50:25;;;;;;;2.97;1.35;;;19.30;73.90;;;;;;5013006;28;20049;-29
2022/07/11 00:52:55;;;;;;;4.70;1.60;;;19.30;74.60;;;;;;5012316;28;20471;-31
2022/07/11 00:55:22;;;;;;;3.63;1.40;;;19.30;74.00;;;;;;5012297;28;20339;-29
2022/07/11 00:57:51;;;;;;;2.85;1.30;;;19.30;74.00;;;;;;5012092;28;20022;-32
2022/07/11 01:00:17;;;;;;;2.63;1.30;;;19.30;74.10;;;;;;5011845;28;20029;-30
2022/07/11 01:02:43;;;;;;;3.38;1.60;;;19.20;74.10;;;;;;5012268;28;20033;-34
2022/07/11 01:05:08;;;;;;;1.75;1.23;;;19.20;74.20;;;;;;5011866;28;20057;-29
2022/07/11 01:07:34;;;;;;;2.45;1.40;;;19.20;74.20;;;;;;5012197;28;20030;-31
2022/07/11 01:09:59;;;;;;;3.83;1.40;;;19.20;74.30;;;;;;5012465;28;20528;-31
2022/07/11 01:12:26;;;;;;;3.45;1.73;;;19.20;74.30;;;;;;5011844;28;20104;-30
2022/07/11 01:14:52;;;;;;;2.90;1.30;;;19.20;74.30;;;;;;5010398;28;20018;-32
2022/07/11 01:17:19;;;;;;;3.35;1.50;;;19.20;74.40;;;;;;5012249;28;20485;-29
2022/07/11 01:19:44;;;;;;;2.10;1.00;;;19.20;74.40;;;;;;5012023;28;20462;-30
2022/07/11 01:22:13;;;;;;;3.65;1.30;;;19.20;74.40;;;;;;5012044;28;20033;-29
2022/07/11 01:24:39;;;;;;;1.70;1.00;;;19.20;74.40;;;;;;5010512;28;20026;-30
2022/07/11 01:27:05;;;;;;;1.20;1.10;;;19.20;74.30;;;;;;5010396;28;20029;-34
2022/07/11 01:29:30;;;;;;;1.50;1.15;;;19.20;74.30;;;;;;5011653;28;20117;-29
2022/07/11 01:31:56;;;;;;;2.05;1.17;;;19.30;74.30;;;;;;5014783;28;20080;-29
2022/07/11 01:34:21;;;;;;;3.30;1.23;;;19.20;74.20;;;;;;5015234;28;20014;-29
2022/07/11 01:36:47;;;;;;;1.45;1.08;;;19.30;74.30;;;;;;5015056;28;20026;-29
2022/07/11 01:39:13;;;;;;;1.48;1.17;;;19.20;74.30;;;;;;5015162;28;20390;-32
2022/07/11 01:41:38;;;;;;;2.22;1.10;;;19.20;74.40;;;;;;5015154;28;20026;-37
2022/07/11 01:44:04;;;;;;;1.75;0.80;;;19.20;74.40;;;;;;5014778;28;20022;-35
2022/07/11 01:46:29;;;;;;;2.83;1.02;;;19.20;74.30;;;;;;5014873;28;20072;-29
2022/07/11 01:48:55;;;;;;;1.52;0.80;;;19.20;74.30;;;;;;5014802;28;20061;-34
2022/07/11 01:51:22;;;;;;;1.80;0.82;;;19.20;74.40;;;;;;5014942;28;20042;-33
2022/07/11 01:53:48;;;;;;;2.13;1.10;;;19.10;74.40;;;;;;5013410;28;20043;-32
2022/07/11 01:56:14;;;;;;;2.55;1.20;;;19.10;74.50;;;;;;5014823;28;20026;-30
2022/07/11 01:58:39;;;;;;;1.40;0.88;;;19.10;74.50;;;;;;5015021;28;20021;-28
2022/07/11 02:01:05;;;;;;;1.20;0.70;;;19.10;74.60;;;;;;5014462;28;20029;-35
2022/07/11 02:03:30;;;;;;;1.73;0.80;;;19.10;74.60;;;;;;5014526;28;20021;-29
2022/07/11 02:05:56;;;;;;;1.85;0.95;;;19.10;74.60;;;;;;5014476;28;20022;-28
2022/07/11 02:08:22;;;;;;;2.35;0.90;;;19.00;74.60;;;;;;5014590;28;20037;-28
2022/07/11 02:10:50;;;;;;;1.80;1.00;;;19.00;74.70;;;;;;5014438;28;20059;-28
2022/07/11 02:13:17;;;;;;;2.60;1.00;;;18.90;74.80;;;;;;5014463;28;20037;-31
2022/07/11 02:15:44;;;;;;;4.45;1.40;;;18.90;74.90;;;;;;5015062;28;20026;-29
2022/07/11 02:18:11;;;;;;;1.75;0.70;;;18.90;75.00;;;;;;5015336;28;20014;-31
2022/07/11 02:20:39;;;;;;;3.33;1.00;;;18.90;75.00;;;;;;5014695;28;20018;-37
2022/07/11 02:23:05;;;;;;;3.10;0.80;;;18.80;75.00;;;;;;5014669;28;20058;-32
2022/07/11 02:25:31;;;;;;;2.08;0.80;;;18.90;75.10;;;;;;5014815;28;20109;-29
2022/07/11 02:27:57;;;;;;;4.35;1.10;;;18.80;75.10;;;;;;5014250;28;20094;-28
2022/07/11 02:30:23;;;;;;;1.88;0.80;;;18.80;75.20;;;;;;5014385;28;20113;-30
2022/07/11 02:32:50;;;;;;;3.15;0.90;;;18.80;75.20;;;;;;5013851;28;20057;-34
2022/07/11 02:35:16;;;;;;;3.47;0.98;;;18.80;75.30;;;;;;5014218;28;20018;-29
2022/07/11 02:37:43;;;;;;;1.35;0.80;;;18.80;75.30;;;;;;5014213;28;20366;-32
2022/07/11 02:40:09;;;;;;;2.40;0.80;;;18.70;75.40;;;;;;5014284;28;20424;-28
2022/07/11 02:42:35;;;;;;;1.40;0.75;;;18.60;75.50;;;;;;5013992;28;20098;-32
2022/07/11 02:45:01;;;;;;;2.85;1.20;;;18.60;75.70;;;;;;5013772;28;20450;-29
2022/07/11 02:47:27;;;;;;;2.60;0.80;;;18.60;75.80;;;;;;5013897;28;20458;-28
2022/07/11 02:49:53;;;;;;;2.83;0.93;;;18.50;75.90;;;;;;5013695;28;20115;-29
2022/07/11 02:52:18;;;;;;;1.88;0.85;;;18.50;76.00;;;;;;5012218;28;20101;-31
2022/07/11 02:54:44;;;;;;;2.30;0.90;;;18.50;76.10;;;;;;5014170;28;20029;-29
2022/07/11 02:57:09;;;;;;;1.88;0.98;;;18.50;76.20;;;;;;5013571;28;20032;-28
2022/07/11 02:59:35;;;;;;;2.17;0.93;;;18.50;76.20;;;;;;5013845;28;20060;-28
2022/07/11 03:02:02;;;;;;;1.85;1.08;;;18.50;76.40;;;;;;5013849;28;20030;-29
2022/07/11 03:04:28;;;;;;;1.42;0.82;;;18.40;76.40;;;;;;5013855;28;20061;-33
2022/07/11 03:06:57;;;;;;;2.63;0.90;;;18.40;76.50;;;;;;5014002;28;20029;-31
2022/07/11 03:09:23;;;;;;;2.40;0.80;;;18.40;76.60;;;;;;5013659;28;20057;-29
2022/07/11 03:11:50;;;;;;;1.60;0.90;;;18.40;76.70;;;;;;5013836;28;20077;-30
2022/07/11 03:14:16;;;;;;;2.15;1.00;;;18.30;76.80;;;;;;5013549;28;20014;-32
2022/07/11 03:16:42;;;;;;;4.40;1.50;;;18.30;76.90;;;;;;5013681;28;20469;-29
2022/07/11 03:19:07;;;;;;;1.35;0.90;;;18.30;77.10;;;;;;5013528;28;20022;-30
2022/07/11 03:21:33;;;;;;;2.17;0.90;;;18.30;77.20;;;;;;5013544;28;20026;-29
2022/07/11 03:23:58;;;;;;;1.42;0.98;;;18.30;77.30;;;;;;5013189;28;20470;-29
2022/07/11 03:26:24;;;;;;;2.38;0.93;;;18.30;77.40;;;;;;5013410;28;20064;-29
2022/07/11 03:28:49;;;;;;;2.03;0.93;;;18.20;77.50;;;;;;5013141;28;20069;-28
2022/07/11 03:31:15;;;;;;;2.38;0.90;;;18.20;77.60;;;;;;5013049;28;20026;-29
2022/07/11 03:33:41;;;;;;;1.05;0.88;;;18.20;77.70;;;;;;5013325;28;20022;-29
2022/07/11 03:36:06;;;;;;;3.35;0.93;;;18.20;77.70;;;;;;5012966;28;20095;-29
2022/07/11 03:38:32;;;;;;;2.38;1.10;;;18.20;77.80;;;;;;5012846;28;20026;-29
2022/07/11 03:40:58;;;;;;;1.55;0.80;;;18.20;77.90;;;;;;5013088;28;20041;-28
2022/07/11 03:43:23;;;;;;;1.77;0.82;;;18.20;77.90;;;;;;5012965;28;20484;-28
2022/07/11 03:45:49;;;;;;;1.02;0.70;;;18.20;77.90;;;;;;5013370;28;20049;-32
2022/07/11 03:48:15;;;;;;;3.80;0.95;;;18.20;77.90;;;;;;5013134;28;20101;-29
2022/07/11 03:50:40;;;;;;;1.58;1.02;;;18.20;77.90;;;;;;5012783;28;20026;-29
2022/07/11 03:53:06;;;;;;;1.63;1.10;;;18.20;77.90;;;;;;5012121;28;20025;-30
2022/07/11 03:55:32;;;;;;;2.70;1.42;;;18.20;78.10;;;;;;5012582;28;20017;-30
2022/07/11 03:57:58;;;;;;;1.50;1.02;;;18.20;78.20;;;;;;5012456;28;20053;-33
2022/07/11 04:00:24;;;;;;;2.67;0.90;;;18.20;78.20;;;;;;5012352;28;20085;-28
2022/07/11 04:02:50;;;;;;;1.00;0.90;;;18.20;78.10;;;;;;5012671;28;20026;-28
2022/07/11 04:05:15;;;;;;;2.97;1.00;;;18.30;78.10;;;;;;5011039;28;20043;-31
2022/07/11 04:07:42;;;;;;;4.00;1.00;;;18.30;78.00;;;;;;5012719;28;20056;-28
2022/07/11 04:10:08;;;;;;;2.22;1.10;;;18.40;78.00;;;;;;5012829;28;20389;-33
2022/07/11 04:12:34;;;;;;;1.50;0.98;;;18.40;78.00;;;;;;5010942;28;20037;-30
2022/07/11 04:14:59;;;;;;;3.05;1.23;;;18.40;78.00;;;;;;5012218;28;20026;-28
2022/07/11 04:17:26;;;;;;;1.40;1.00;;;18.40;78.10;;;;;;5010898;28;20366;-30
2022/07/11 04:19:53;;;;;;;2.92;1.20;;;18.40;78.30;;;;;;5012522;28;20057;-29
2022/07/11 04:22:19;;;;;;;1.65;1.00;;;18.30;78.30;;;;;;5012291;28;20117;-29
2022/07/11 04:24:44;;;;;;;1.10;1.00;;;18.30;78.50;;;;;;5012242;28;20034;-32
2022/07/11 04:27:10;;;;;;;1.50;1.00;;;18.30;78.50;;;;;;5012152;28;20025;-29
2022/07/11 04:29:36;;;;;;;1.75;0.90;;;18.30;78.50;;;;;;5012219;28;20109;-30
2022/07/11 04:32:01;;;;;;;1.42;0.93;;;18.20;78.60;;;;;;5011952;28;20362;-31
2022/07/11 04:34:27;;;;;;;2.55;1.00;;;18.20;78.80;;;;;;5012094;28;20061;-29
2022/07/11 04:36:52;;;;;;;2.08;0.90;;;18.10;78.90;;;;;;5012056;28;20028;-29
2022/07/11 04:39:18;;;;;;;1.58;0.85;;;18.10;79.10;;;;;;5010599;28;20319;-30
2022/07/11 04:41:43;;;;;;;3.15;0.95;;;18.10;79.10;;;;;;5012053;28;20026;-29
2022/07/11 04:44:09;;;;;;;2.72;0.80;;;18.20;79.10;;;;;;5012135;28;20496;-28
2022/07/11 04:46:35;;;;;;;1.95;0.90;;;18.20;79.10;;;;;;5012169;28;20104;-29
2022/07/11 04:49:00;;;;;;;1.17;0.70;;;18.20;78.90;;;;;;5011952;28;20397;-29
2022/07/11 04:51:26;;;;;;;1.50;0.70;;;18.20;79.00;;;;;;5011903;28;20030;-31
2022/07/11 04:53:52;;;;;;;1.25;0.85;;;18.20;79.10;;;;;;5011782;28;20018;-30
2022/07/11 04:56:17;;;;;;;0.93;0.80;;;18.20;79.10;;;;;;5012000;28;20125;-28
2022/07/11 04:58:43;;;;;;;1.98;1.10;;;18.20;79.10;;;;;;5012190;28;20029;-35
2022/07/11 05:01:09;;;;;;;1.20;0.70;;;18.20;79.20;;;;;;5012133;28;20443;-32
2022/07/11 05:03:35;;;;;;;1.17;0.95;;;18.20;79.30;;;;;;5011921;28;20014;-29
2022/07/11 05:06:01;;;;;;;1.15;0.93;;;18.20;79.30;;;;;;5013685;28;20018;-33
2022/07/11 05:08:29;;;;;;;1.38;0.75;;;18.20;79.30;;;;;;5015994;28;20038;-36
2022/07/11 05:10:55;;;;;;;2.35;0.88;;;18.30;79.40;;;;;;5015568;28;20101;-29
2022/07/11 05:13:20;;;;;;;1.10;1.00;;;18.30;79.40;;;;;;5016533;28;20058;-32
2022/07/11 05:15:46;;;;;;;2.00;0.90;;;18.30;79.30;;;;;;5016065;28;20056;-32
2022/07/11 05:18:11;;;;;;;0.82;0.70;;;18.30;79.20;;;;;;5016023;28;20389;-29
2022/07/11 05:20:37;;;;;;;0.93;0.80;;;18.40;79.30;;;;;;5016252;28;20064;-30
2022/07/11 05:23:03;;;;;;;2.30;0.80;;;18.40;79.30;;;;;;5016060;28;20018;-31
2022/07/11 05:25:28;;;;;;;1.48;0.68;;;18.40;79.10;;;;;;5016029;28;20028;-29
2022/07/11 05:27:54;;;;;;;0.82;0.77;;;18.50;79.70;;;;;;5015762;28;20037;-29
2022/07/11 05:30:20;;;;;;;1.10;0.80;;;18.50;79.10;;;;;;5015893;28;20030;-31
2022/07/11 05:32:45;;;;;;;0.75;0.68;;;18.40;79.10;;;;;;5015723;28;20030;-31
2022/07/11 05:35:11;;;;;;;0.70;0.60;;;18.50;79.20;;;;;;5015802;28;20072;-30
2022/07/11 05:37:37;;;;;;;2.00;0.80;;;18.50;79.20;;;;;;5015428;28;20054;-29
2022/07/11 05:40:03;;;;;;;1.05;0.65;;;18.50;79.10;;;;;;5015310;28;20168;-30
2022/07/11 05:42:31;;;;;;;0.88;0.70;;;18.60;79.20;;;;;;5015401;28;20398;-30
2022/07/11 05:44:57;;;;;;;0.65;0.65;;;18.60;79.10;;;;;;5015628;28;20042;-31
2022/07/11 05:47:22;;;;;;;1.33;0.70;;;18.60;78.90;;;;;;5015889;28;20040;-38
2022/07/11 05:49:48;;;;;;;1.05;0.80;;;18.70;79.00;;;;;;5015461;28;20112;-32
2022/07/11 05:52:13;;;;;;;1.83;0.90;;;18.60;79.00;;;;;;5015348;28;20041;-30
2022/07/11 05:54:39;;;;;;;0.80;0.80;;;18.60;79.10;;;;;;5015750;28;20413;-30
2022/07/11 05:57:05;;;;;;;0.98;0.85;;;18.60;79.30;;;;;;5015633;28;20469;-34
2022/07/11 05:59:31;;;;;;;1.13;0.90;;;18.70;79.30;;;;;;5015329;28;20018;-30
2022/07/11 06:01:56;;;;;;;0.82;0.77;;;18.70;79.30;;;;;;5015312;28;20052;-32
2022/07/11 06:04:22;;;;;;;0.85;0.85;;;18.80;79.30;;;;;;5015040;28;20084;-29
2022/07/11 06:06:48;;;;;;;1.48;0.70;;;18.80;79.30;;;;;;5014793;28;20057;-29
2022/07/11 06:09:14;;;;;;;0.80;0.80;;;18.70;79.30;;;;;;5014839;28;20045;-31
2022/07/11 06:11:39;;;;;;;0.88;0.70;;;18.70;79.50;;;;;;5014587;28;20056;-28
2022/07/11 06:14:08;;;;;;;1.20;0.82;;;18.70;79.60;;;;;;5014545;28;20057;-29
2022/07/11 06:16:35;;;;;;;0.88;0.70;;;18.70;79.70;;;;;;5014340;28;20527;-29
2022/07/11 06:19:01;;;;;;;0.75;0.60;;;18.80;79.70;;;;;;5014721;28;20046;-29
2022/07/11 06:21:27;;;;;;;0.88;0.60;;;18.80;79.70;;;;;;5014453;28;20026;-29
2022/07/11 06:23:54;;;;;;;1.10;0.57;;;18.80;79.70;;;;;;5015079;28;20511;-31
2022/07/11 06:26:20;;;;;;;0.40;0.40;;;18.80;79.60;;;;;;5014415;28;20029;-31
2022/07/11 06:28:46;;;;;;;0.80;0.50;;;18.80;79.50;;;;;;5014705;28;20029;-32
2022/07/11 06:31:12;;;;;;;0.63;0.47;;;18.80;79.70;;;;;;5014373;28;20026;-28
2022/07/11 06:33:38;;;;;;;0.30;0.30;;;18.70;79.70;;;;;;5014337;28;20030;-28
2022/07/11 06:36:05;;;;;;;0.50;0.40;;;18.70;79.80;;;;;;5014255;28;20022;-28
2022/07/11 06:38:30;;;;;;;0.50;0.30;;;18.70;79.90;;;;;;5014339;28;20032;-28
2022/07/11 06:40:56;;;;;;;0.93;0.30;;;18.80;80.00;;;;;;5014326;28;20014;-28
2022/07/11 06:43:22;;;;;;;0.32;0.32;;;18.80;80.50;;;;;;5014823;28;20025;-29
2022/07/11 06:45:48;;;;;;;0.40;0.35;;;18.90;79.80;;;;;;5014541;28;20124;-28
2022/07/11 06:48:13;;;;;;;0.20;0.20;;;19.00;79.80;;;;;;5013958;28;20155;-29
2022/07/11 06:50:40;;;;;;;0.30;0.30;;;19.10;80.30;;;;;;5014292;28;20068;-32
2022/07/11 06:53:06;;;;;;;0.65;0.40;;;19.10;79.50;;;;;;5013617;28;20068;-28
2022/07/11 06:55:32;;;;;;;0.38;0.38;;;19.20;79.30;;;;;;5014168;28;20029;-31
2022/07/11 06:57:59;;;;;;;0.32;0.32;;;19.30;79.20;;;;;;5014019;28;20053;-30
2022/07/11 07:00:24;;;;;;;0.90;0.38;;;19.40;79.10;;;;;;5013692;28;20540;-28
2022/07/11 07:02:50;;;;;;;0.40;0.25;;;19.40;78.90;;;;;;5013878;28;20030;-30
2022/07/11 07:05:16;;;;;;;0.73;0.50;;;19.50;78.80;;;;;;5013618;28;20050;-29
2022/07/11 07:07:41;;;;;;;0.52;0.40;;;19.50;78.70;;;;;;5013541;28;20033;-34
2022/07/11 07:10:07;;;;;;;1.20;0.45;;;19.60;78.70;;;;;;5013595;28;20102;-31
2022/07/11 07:12:38;;;;;;;0.60;0.50;;;19.60;78.70;;;;;;5013782;28;20021;-29
2022/07/11 07:15:04;;;;;;;0.75;0.40;;;19.70;78.70;;;;;;5013771;28;20032;-31
2022/07/11 07:17:31;;;;;;;0.60;0.60;;;19.80;78.60;;;;;;5013791;28;20040;-30
2022/07/11 07:19:56;;;;;;;1.13;0.40;;;19.80;78.50;;;;;;5013557;28;20343;-31
2022/07/11 07:22:22;;;;;;;0.50;0.50;;;19.80;78.30;;;;;;5013754;28;20041;-30
2022/07/11 07:24:48;;;;;;;0.68;0.40;;;19.90;78.30;;;;;;5013735;28;20136;-29
2022/07/11 07:27:14;;;;;;;0.93;0.50;;;19.90;78.30;;;;;;5013390;28;20053;-29
2022/07/11 07:29:40;;;;;;;0.40;0.40;;;19.90;78.30;;;;;;5012813;28;20381;-29
2022/07/11 07:32:06;;;;;;;0.50;0.50;;;20.00;78.20;;;;;;5013450;28;20461;-28
2022/07/11 07:34:32;;;;;;;0.65;0.40;;;20.00;78.10;;;;;;5013701;28;20409;-33
2022/07/11 07:36:58;;;;;;;0.38;0.30;;;20.20;78.00;;;;;;5013384;28;20474;-29
2022/07/11 07:39:24;;;;;;;0.25;0.22;;;20.30;77.90;;;;;;5013391;28;20028;-31
2022/07/11 07:41:49;;;;;;;0.30;0.30;;;20.30;77.70;;;;;;5012018;28;20104;-31
2022/07/11 07:44:15;;;;;;;0.30;0.30;;;20.40;77.60;;;;;;5013518;28;20026;-30
2022/07/11 07:46:41;;;;;;;0.70;0.35;;;20.50;77.60;;;;;;5013343;28;20030;-30
2022/07/11 07:49:06;;;;;;;0.73;0.35;;;20.40;77.40;;;;;;5013328;28;20049;-30
2022/07/11 07:51:33;;;;;;;0.68;0.57;;;20.40;77.30;;;;;;5013397;28;20028;-31
2022/07/11 07:53:58;;;;;;;0.32;0.32;;;20.40;77.30;;;;;;5012979;28;20487;-29
2022/07/11 07:56:24;;;;;;;0.22;0.22;;;20.40;77.50;;;;;;5012872;28;20050;-30
2022/07/11 07:58:51;;;;;;;0.25;0.25;;;20.40;77.30;;;;;;5013043;28;20022;-30
2022/07/11 08:01:35;;;;;;;0.30;0.30;;;20.50;77.00;;;;;;5012833;28;20485;-29
2022/07/11 08:04:09;;;;;;;1.10;0.30;;;20.70;76.60;;;;;;5013046;28;20078;-29
2022/07/11 08:06:35;;;;;;;1.40;0.55;;;20.80;76.10;;;;;;5013219;28;20103;-31
2022/07/11 08:09:02;;;;;;;0.40;0.40;;;20.90;75.90;;;;;;5012834;28;20152;-28
2022/07/11 08:11:28;;;;;;;0.20;0.20;;;20.90;75.90;;;;;;5012849;28;20045;-34
2022/07/11 08:13:54;;;;;;;0.75;0.30;;;21.00;75.80;;;;;;5012687;28;20018;-29
2022/07/11 08:16:20;;;;;;;0.40;0.40;;;20.90;75.60;;;;;;5012825;28;20026;-29
2022/07/11 08:18:46;;;;;;;0.20;0.20;;;21.00;75.50;;;;;;5012969;28;20101;-35
2022/07/11 08:21:12;;;;;;;0.52;0.38;;;21.10;75.40;;;;;;5012299;28;20038;-30
2022/07/11 08:23:38;;;;;;;0.30;0.30;;;21.10;75.30;;;;;;5012528;28;20036;-33
2022/07/11 08:26:04;;;;;;;0.32;0.25;;;21.20;75.20;;;;;;5012496;28;20450;-31
2022/07/11 08:28:29;;;;;;;0.30;0.30;;;21.20;74.90;;;;;;5012747;28;20029;-30
2022/07/11 08:30:55;;;;;;;0.63;0.43;;;21.20;74.60;;;;;;5012774;28;20389;-29
2022/07/11 08:33:20;;;;;;;0.30;0.30;;;21.20;74.40;;;;;;5012383;28;20117;-30
2022/07/11 08:35:46;;;;;;;0.20;0.20;;;21.10;74.40;;;;;;5012804;28;20022;-32
2022/07/11 08:38:12;;;;;;;0.30;0.30;;;21.10;74.50;;;;;;5012426;28;20446;-32
2022/07/11 08:40:40;;;;;;;0.32;0.32;;;21.00;74.50;;;;;;5012343;28;20022;-34
2022/07/11 08:43:15;;;;;;;0.30;0.30;;;21.20;74.50;;;;;;5012384;28;20131;-30
2022/07/11 08:45:41;;;;;;;0.40;0.30;;;21.30;74.30;;;;;;5012574;28;20111;-30
2022/07/11 08:48:11;;;;;;;0.30;0.30;;;21.40;74.00;;;;;;5012313;28;20029;-32
2022/07/11 08:50:37;;;;;;;0.30;0.30;;;21.40;73.80;;;;;;5012347;28;20022;-32
2022/07/11 08:53:05;;;;;;;0.40;0.40;;;21.30;73.60;;;;;;5012214;28;20100;-36
2022/07/11 08:55:31;;;;;;;1.45;0.40;;;21.30;73.60;;;;;;5012468;28;20044;-30
2022/07/11 08:57:56;;;;;;;1.45;0.38;;;21.10;73.80;;;;;;5012173;28;20100;-32
2022/07/11 09:00:23;;;;;;;0.35;0.30;;;21.10;74.10;;;;;;5012419;28;20032;-31
2022/07/11 09:02:49;;;;;;;0.35;0.35;;;21.00;74.20;;;;;;5011992;28;20034;-29
2022/07/11 09:05:15;;;;;;;0.40;0.40;;;20.90;74.40;;;;;;5011863;28;20124;-29
2022/07/11 09:07:43;;;;;;;0.43;0.40;;;20.80;74.50;;;;;;5012160;28;20169;-30
2022/07/11 09:10:09;;;;;;;0.40;0.40;;;20.80;74.60;;;;;;5012143;28;20033;-28
2022/07/11 09:12:35;;;;;;;0.90;0.70;;;20.70;74.70;;;;;;5012345;28;20034;-30
2022/07/11 09:15:00;;;;;;;0.47;0.43;;;20.60;74.90;;;;;;5012698;28;20446;-30
2022/07/11 09:17:30;;;;;;;0.88;0.40;;;20.50;75.00;;;;;;5012165;28;20426;-29
2022/07/11 09:19:56;;;;;;;0.47;0.40;;;20.50;75.00;;;;;;5012547;28;20362;-30
2022/07/11 09:25:23;;;;;;;0.30;0.30;;;20.70;75.50;;;;;;5012271;28;20456;-34
2022/07/11 09:28:01;;;;;;;0.30;0.30;;;20.80;74.60;;;;;;5012033;28;20026;-29
2022/07/11 09:30:31;;;;;;;0.38;0.30;;;20.90;74.40;;;;;;5012538;28;20374;-31
2022/07/11 09:33:04;;;;;;;0.73;0.40;;;21.00;74.20;;;;;;5012180;28;20018;-33
2022/07/11 09:35:34;;;;;;;0.50;0.50;;;21.10;74.10;;;;;;5012391;28;20178;-34
2022/07/11 09:38:04;;;;;;;0.50;0.38;;;21.10;73.90;;;;;;5012378;28;20376;-29
2022/07/11 09:40:30;;;;;;;0.55;0.45;;;21.10;73.90;;;;;;5012636;28;20018;-31
2022/07/11 09:42:58;;;;;;;0.40;0.40;;;21.10;73.90;;;;;;5012149;28;20076;-31
2022/07/11 09:45:26;;;;;;;0.57;0.38;;;21.00;74.00;;;;;;5012142;28;20458;-28
2022/07/11 09:47:53;;;;;;;1.13;0.60;;;20.90;74.00;;;;;;5012128;28;20428;-34
2022/07/11 09:50:25;;;;;;;0.88;0.70;;;20.80;74.20;;;;;;5012663;28;20034;-30
2022/07/11 09:53:06;;;;;;;0.73;0.60;;;20.70;74.50;;;;;;5014970;28;20061;-33
2022/07/11 09:55:33;;;;;;;0.50;0.50;;;20.60;74.60;;;;;;5015600;28;20034;-30
2022/07/11 09:58:07;;;;;;;1.13;0.68;;;20.50;74.80;;;;;;5015283;28;20014;-32
2022/07/11 10:00:33;;;;;;;;;;;20.50;74.90;;;;;;5015592;28;20034;-29
2022/07/11 10:02:59;;;;;;;0.57;0.55;;;20.50;74.90;;;;;;5015116;28;19952;-33
2022/07/11 10:05:26;;;;;;;0.40;0.40;;;20.40;74.90;;;;;;5013652;28;20453;-29
2022/07/11 10:07:51;;;;;;;0.65;0.30;;;20.50;74.90;;;;;;5015080;28;20128;-31
2022/07/11 10:10:18;;;;;;;0.47;0.40;;;20.70;74.70;;;;;;5015034;28;20034;-31
2022/07/11 10:12:46;;;;;;;0.45;0.40;;;20.80;74.40;;;;;;5015210;28;20041;-30
2022/07/11 10:15:14;;;;;;;0.70;0.47;;;20.90;74.20;;;;;;5015117;28;20091;-29
2022/07/11 10:17:44;;;;;;;0.50;0.50;;;21.00;74.00;;;;;;5015070;28;20041;-31
2022/07/11 10:20:15;;;;;;;0.50;0.50;;;21.10;73.90;;;;;;5015129;28;20026;-31
2022/07/11 10:22:44;;;;;;;0.95;0.47;;;21.30;73.50;;;;;;5014941;28;20053;-32
2022/07/11 10:25:29;;;;;;;0.50;0.50;;;21.40;73.10;;;;;;5014902;28;20030;-31
2022/07/11 10:27:59;;;;;;;0.55;0.40;;;21.50;72.90;;;;;;5014809;28;20109;-33
2022/07/11 10:30:49;;;;;;;0.93;0.40;;;21.70;72.70;;;;;;5015012;28;20508;-32
2022/07/11 10:33:16;;;;;;;1.05;0.60;;;21.80;72.50;;;;;;5014785;28;20049;-36
2022/07/11 10:35:44;;;;;;;0.40;0.30;;;21.80;72.20;;;;;;5013264;28;20045;-34
2022/07/11 10:38:10;;;;;;;0.40;0.40;;;21.80;72.00;;;;;;5014660;28;20113;-31
2022/07/11 10:40:43;;;;;;;1.02;0.43;;;21.80;72.00;;;;;;5014846;28;20026;-32
2022/07/11 10:43:09;;;;;;;0.73;0.45;;;21.60;71.90;;;;;;5014895;28;20038;-30
2022/07/11 10:45:56;;;;;;;0.75;0.38;;;21.40;72.30;;;;;;5014561;28;20036;-32
2022/07/11 10:48:23;;;;;;;0.70;0.35;;;21.30;72.90;;;;;;5014767;28;20129;-30
2022/07/11 10:51:14;;;;;;;0.30;0.30;;;21.30;73.00;;;;;;5013395;28;20061;-33
2022/07/11 10:53:50;;;;;;;0.30;0.30;;;21.50;73.00;;;;;;5010619;28;20050;-31
2022/07/11 10:56:28;;;;;;;0.52;0.40;;;21.70;72.50;;;;;;5014495;28;20061;-29
2022/07/11 10:59:16;;;;;;;0.30;0.30;;;21.90;72.00;;;;;;5014395;28;20046;-28
2022/07/11 11:02:06;;;;;;;0.40;0.40;;;22.10;71.70;;;;;;5014405;28;20065;-28
2022/07/11 11:04:42;;;;;;;0.35;0.30;;;22.30;71.30;;;;;;5014292;28;20390;-29
2022/07/11 11:07:31;;;;;;;0.75;0.43;;;22.40;70.80;;;;;;5014533;28;20038;-29
2022/07/11 11:09:57;;;;;;;0.25;0.25;;;22.60;70.50;;;;;;5014735;28;20030;-35
2022/07/11 11:13:01;;;;;;;0.40;0.30;;;22.50;70.30;;;;;;5014187;28;20026;-31
2022/07/11 11:15:44;;;;;;;0.57;0.28;;;22.50;70.30;;;;;;5013934;28;20045;-32
2022/07/11 11:18:24;;;;;;;0.20;0.20;;;22.60;70.40;;;;;;5013901;28;20030;-31
2022/07/11 11:21:02;;;;;;;0.40;0.40;;;22.60;70.20;;;;;;5013878;28;20057;-31
2022/07/11 11:23:33;;;;;;;0.38;0.30;;;22.60;70.10;;;;;;5014071;28;20139;-29
2022/07/11 11:26:08;;;;;;;0.15;0.10;;;22.60;70.00;;;;;;5013928;28;20113;-32
2022/07/11 11:28:34;;;;;;;0.68;0.40;;;22.60;70.00;;;;;;5013780;28;20547;-30
2022/07/11 11:31:04;;;;;;;0.50;0.30;;;22.50;70.00;;;;;;5012303;28;20030;-33
2022/07/11 11:33:32;;;;;;;0.45;0.40;;;22.50;70.10;;;;;;5013888;28;20025;-29
2022/07/11 11:36:06;;;;;;;1.40;0.47;;;22.40;70.10;;;;;;5013577;28;20041;-33
2022/07/11 11:38:37;;;;;;;0.40;0.40;;;22.30;70.40;;;;;;5013542;28;20473;-33
2022/07/11 11:41:06;;;;;;;0.95;0.47;;;22.10;70.70;;;;;;5013592;28;20030;-28
2022/07/11 11:43:33;;;;;;;0.30;0.30;;;22.00;70.90;;;;;;5013404;28;20481;-29
2022/07/11 11:45:59;;;;;;;0.60;0.57;;;21.90;71.20;;;;;;5013633;28;20116;-35
2022/07/11 11:48:29;;;;;;;0.45;0.45;;;21.90;71.40;;;;;;5013386;28;20115;-31
2022/07/11 11:51:04;;;;;;;0.65;0.50;;;21.90;71.40;;;;;;5013808;28;20457;-29
2022/07/11 11:53:45;;;;;;;0.40;0.40;;;21.90;71.40;;;;;;5013176;28;20389;-30
2022/07/11 11:56:22;;;;;;;0.85;0.70;;;22.00;71.40;;;;;;5013413;28;20127;-29
2022/07/11 11:58:48;;;;;;;0.57;0.57;;;22.00;71.30;;;;;;5011731;28;20030;-32
2022/07/11 12:01:24;;;;;;;0.38;0.38;;;22.10;71.90;;;;;;5013094;28;20025;-30
2022/07/11 12:03:54;;;;;;;0.82;0.40;;;22.20;71.10;;;;;;5013200;28;20153;-29
2022/07/11 12:06:26;;;;;;;0.60;0.50;;;22.30;70.80;;;;;;5013198;28;20045;-29
2022/07/11 12:08:57;;;;;;;0.45;0.45;;;22.30;70.80;;;;;;5013050;28;20485;-30
2022/07/11 12:11:23;;;;;;;0.40;0.40;;;22.30;70.80;;;;;;5012769;28;20030;-30
2022/07/11 12:13:56;;;;;;;0.75;0.40;;;22.30;70.80;;;;;;5012291;28;20107;-35
2022/07/11 12:19:08;;;;;;;0.40;0.40;;;22.30;70.70;;;;;;5012975;28;20041;-34
2022/07/11 12:21:35;;;;;;;0.75;0.43;;;22.30;70.80;;;;;;5013075;28;20070;-35
2022/07/11 12:24:06;;;;;;;0.50;0.50;;;22.30;70.80;;;;;;5012770;28;20117;-35
2022/07/11 12:26:37;;;;;;;0.43;0.40;;;22.30;70.80;;;;;;5013585;28;20045;-33
2022/07/11 12:29:19;;;;;;;0.45;0.45;;;22.20;70.80;;;;;;5013063;28;20034;-33
2022/07/11 12:31:50;;;;;;;0.30;0.30;;;22.20;70.90;;;;;;5013050;28;20045;-33
2022/07/11 12:34:18;;;;;;;0.77;0.50;;;22.10;71.10;;;;;;5013089;28;20112;-34
2022/07/11 12:36:45;;;;;;;0.93;0.60;;;22.00;71.20;;;;;;5013322;28;20030;-38
2022/07/11 12:39:24;;;;;;;1.05;0.50;;;22.00;71.20;;;;;;5013340;28;20029;-35
2022/07/11 12:41:55;;;;;;;0.50;0.50;;;22.10;71.20;;;;;;5011938;28;20049;-36
2022/07/11 12:47:16;;;;;;;1.42;0.30;;;22.40;70.70;;;;;;5012986;28;20037;-33
2022/07/11 12:49:45;;;;;;;1.85;0.40;;;22.50;70.40;;;;;;5013107;28;20052;-32
2022/07/11 12:52:12;;;;;;;0.20;0.20;;;22.70;70.10;;;;;;5012953;28;20056;-33
2022/07/11 12:54:39;;;;;;;0.73;0.32;;;22.70;69.80;;;;;;5012907;28;20034;-32
2022/07/11 12:57:06;;;;;;;0.25;0.20;;;22.70;69.60;;;;;;5012724;28;20060;-36
2022/07/11 12:59:31;;;;;;;0.20;0.20;;;22.70;69.60;;;;;;5012941;28;20026;-33